x

Buoy I01 - Eastern Maine Shelf (44034) Wave Buoy

6:04 - Fri 23rd Jun 2017 All times are EDT. -4 hours from GMT.

  • Sig Wave height 2.0ft
  • Peak Period 5s
  • Wind
    9mph, 9mph gusts
  • Sea Temp 49°f
  • Luft Temp 52°f
  • Sea Pressure 1009.9mb
  • Buoy I01 - Eastern Maine Shelf
  • Buoy I01 - Eastern Maine Shelf

More Historic Weather Station data

Upgrade to MSW Pro to gain access to the past 30 days of data for over 8000 Wavebouys and Weather Stations around the globe.

Join Pro

Comparision Forecast

View Surf forecast
   
Fr 06/23 6:04 2ft 5s 9 9 mph 1009.9mb 49f 52f
5:04 2.5ft 6s 7 9 mph 1009.7mb 49f 51f
4:04 2.5ft 6s 7 7 mph 1009.8mb 49f 51f
3:04 2ft 8s 4 4 mph 1010.2mb 50f 51f
2:04 2.5ft 6s 4 4 mph 1010.6mb 50f 52f
1:04 2.5ft 6s 7 7 mph 1011mb 49f 52f
12:04 2.5ft 6s 4 4 mph 1011.5mb 50f 52f
Do 06/22 11:04 2.5ft 6s 7 7 mph 1011.3mb 49f 54f
10:04 2.5ft 6s 2 4 mph 1011.2mb 50f 53f
9:04 2.5ft 6s 7 7 mph 1011.1mb 50f 53f
8:04 2.5ft 6s 9 11 mph 1010.5mb 49f 53f
7:04 3ft 4s 9 11 mph 1010.2mb 49f 54f
6:04 2.5ft 6s 16 16 mph 1009.9mb 49f 55f
5:04 2.5ft 6s 13 16 mph 1010.2mb 49f 55f
4:04 3ft 6s 11 13 mph 1010.2mb 50f 55f
3:04 2.5ft 6s 9 11 mph 1010.8mb 50f 54f
2:04 3ft 6s 11 13 mph 1011.3mb 49f 54f
1:04 3ft 6s 9 11 mph 1011.4mb 49f 54f
12:04 2.5ft 6s 11 11 mph 1011.5mb 49f 54f
11:04 3ft 6s 11 13 mph 1011.6mb 50f 53f
10:04 2.5ft 6s 4 7 mph 1011.7mb 49f 54f
9:04 3.5ft 6s 7 7 mph 1012.2mb 49f 54f
8:04 3ft 6s 4 4 mph 1011.9mb 49f 53f
7:04 2.5ft 6s 7 9 mph 1011.8mb 49f 54f
6:04 2.5ft 6s 7 7 mph 1011.1mb 49f 55f
5:04 3ft 6s 7 7 mph 1011.1mb 49f 53f
4:04 3ft 6s 4 4 mph 1010.8mb 49f 54f
3:04 3ft 6s 7 9 mph 1010.7mb 50f 56f
2:04 2.5ft 6s 7 9 mph 1010.5mb 50f 54f
1:04 3.5ft 5s 4 7 mph 1010mb 49f 55f
12:04 3.5ft 8s 7 9 mph 1009.4mb 49f 55f
Mi 06/21 11:04 3ft 8s 7 7 mph 1009.1mb 49f 54f
10:04 3.5ft 8s 2 4 mph 1008.4mb 50f 53f
9:04 3.5ft 8s 7 9 mph 1007.7mb 48f 52f
8:04 3.5ft 8s 9 11 mph 1007.4mb 48f 54f
7:04 3ft 6s 9 11 mph 1007mb 49f 53f
6:04 3ft 8s 7 9 mph 1006.7mb 49f 54f
5:04 3ft 8s 11 13 mph 1006.7mb 49f 55f
4:04 3.5ft 8s 13 16 mph 1006.8mb 50f 54f
3:04 3.5ft 8s 13 16 mph 1007.1mb 50f 53f
2:04 4.5ft 8s 13 16 mph 1007.5mb 50f 54f
1:04 5ft 8s 11 13 mph 1008.1mb 50f 53f
12:04 4ft 8s 9 9 mph 1008.7mb 49f 52f
11:04 4ft 8s 11 11 mph 1009.1mb 49f 53f
10:04 5ft 8s 7 7 mph 1009.4mb 49f 53f
9:04 5ft 6s 9 9 mph 1009.9mb 49f 53f
8:04 4.5ft 8s 7 9 mph 1010mb 49f 53f
7:04 4.5ft 8s 4 9 mph 1010.3mb 49f 53f
6:04 4.5ft 8s 11 13 mph 1010.2mb 49f 54f
5:04 4ft 6s 7 9 mph 1010.3mb 49f 53f
4:04 4.5ft 6s 9 11 mph 1010mb 49f 53f
3:04 4.5ft 8s 11 11 mph 1010.3mb 49f 54f
2:04 4.5ft 6s 11 13 mph 1010.3mb 49f 52f
1:04 5ft 8s 4 7 mph 1010.4mb 49f 52f
12:04 5ft 8s 9 9 mph 1010.3mb 49f 52f
Di 06/20 11:04 4.5ft 8s 9 11 mph 1010mb 48f 52f
10:04 5.5ft 8s 9 9 mph 1009.5mb 48f 52f
9:04 5.5ft 8s 9 11 mph 1009.1mb 48f 53f
8:04 5ft 8s 18 20 mph 1007.7mb 48f 53f
7:04 5.5ft 6s 18 20 mph 1007.3mb 48f 53f
6:04 5ft 6s 20 22 mph 1006.9mb 48f 54f
5:04 5ft 6s 22 25 mph 1007mb 48f 53f
4:04 5ft 6s 20 22 mph 1007.7mb 48f 53f
3:04 6ft 6s 18 20 mph 1007.6mb 48f 53f
2:04 5.5ft 6s 16 18 mph 1008.1mb 48f 53f
1:04 6ft 8s 16 20 mph 1008.5mb 47f 53f
12:04 6.5ft 8s 13 16 mph 1008.8mb 47f 52f
11:04 6ft 8s 16 18 mph 1009mb 48f 53f
10:04 6.5ft 8s 16 18 mph 1009mb 47f 53f
9:04 5.5ft 8s 16 20 mph 1009.7mb 47f 53f
8:04 6ft 6s 18 18 mph 1009.4mb 47f 53f
7:04 6ft 6s 18 20 mph 1009.4mb 47f 53f
6:04 6ft 6s 18 22 mph 1009.2mb 48f 53f
4:04 6ft 6s 20 22 mph 1009.6mb 48f 54f
3:04 7.5ft 8s 18 20 mph 1009.4mb 48f 54f
2:04 7ft 8s 16 18 mph 1009.8mb 48f 53f
1:04 7.5ft 8s 18 22 mph 1009.7mb 48f 55f
12:04 6ft 6s 18 20 mph 1010mb 48f 54f
Mo 06/19 11:04 6ft 6s 18 22 mph 1010.2mb 47f 54f
10:04 6.5ft 8s 18 20 mph 1010.5mb 47f 54f
9:04 7ft 8s 18 22 mph 1010.2mb 47f 55f
8:04 6ft 6s 22 25 mph 1009.4mb 47f 55f
7:04 7ft 6s 20 25 mph 1009.6mb 48f 54f
6:04 6ft 6s 20 22 mph 1009.1mb 48f 54f
5:04 6ft 6s 20 25 mph 1009.4mb 48f 54f
4:04 5ft 6s 18 22 mph 1009.5mb 48f 54f
3:04 5.5ft 6s 13 18 mph 1010.2mb 48f 53f
2:04 5.5ft 6s 16 18 mph 1010.6mb 48f 53f
1:04 6ft 6s 16 18 mph 1010.7mb 48f 53f